Weather observations for the past three days for
Brownwood, Brownwood Regional Airport
Imperial (Metric)
Date Time (cdt) Wind (mph) Vis. (mi.) Weather Sky Cond. Temperature (ºF) Relative Humidity Wind Chill (°F) Heat Index (°F) Pressure Precipitation (in)
Air Dwpt 6 hour altimeter (in) sea level (mb) 1 hr 3 hr 6 hr
Max. Min.
07 10:15 Vrbl 7 10.00 Partly Cloudy FEW170 SCT260 60.3 50.4 70% 30.1 0.0
07 09:55 NE 7 10.00 Mostly Cloudy SCT160 BKN180 BKN260 59.7 49.6 69% 30.1 0.0
07 09:35 NE 6 10.00 Mostly Cloudy BKN150 57.7 48.9 73% 30.11 0.0
07 09:15 E 7 10.00 Partly Cloudy SCT160 56.8 48.9 75% 30.12 0.0
07 08:55 NE 7 10.00 Partly Cloudy SCT170 SCT270 55.4 50.2 83% 30.11 0.0
07 08:35 NE 7 10.00 Mostly Cloudy BKN150 53.8 50 87% 30.11 0.0
07 08:15 NE 6 9.00 Mostly Cloudy BKN150 53.4 50 88% 30.12 0.0
07 07:55 NE 5 9.00 Mostly Cloudy SCT160 BKN270 52.9 49.8 89% 30.12 0.0
07 07:35 NE 7 9.00 Partly Cloudy SCT270 52.2 49.8 92% 30.11 0.0
07 07:15 NE 5 9.00 Partly Cloudy SCT270 52 49.6 92% 30.12 0.0
07 06:55 NE 6 9.00 A Few Clouds FEW022 52.2 49.6 91% 30.11 0.0
07 06:35 NE 6 10.00 Mostly Cloudy BKN022 52.9 50 90% 30.11 0.0
07 06:15 NE 8 10.00 Overcast OVC022 53.6 50.4 89% 30.1 0.0
07 05:55 N 9 10.00 Overcast OVC021 54.1 50.9 89% 30.11 0.0
07 05:35 N 6 10.00 Overcast SCT015 OVC021 54.9 51.3 88% 30.1 0.0
07 05:15 N 5 10.00 Overcast OVC018 55 51.6 88% 30.1 0.0
07 04:55 NE 3 10.00 Overcast OVC019 55 51.6 88% 30.1 0.0
07 04:35 NE 5 10.00 Overcast OVC018 55 51.4 88% 30.09 0.0
07 04:15 NE 5 10.00 Overcast OVC017 55 51.4 88% 30.08 0.0
07 03:55 NE 7 10.00 Overcast OVC016 55.2 51.8 88% 30.06 0.0
07 03:35 NE 7 10.00 Overcast OVC014 55.6 51.8 87% 30.05 0.0
07 03:15 NE 7 10.00 Overcast OVC013 55.8 52.2 88% 30.05 0.0
07 02:55 NE 6 10.00 Overcast OVC013 55.6 52.3 89% 30.04 0.0
07 02:35 NE 6 10.00 Overcast OVC014 55.4 52.9 91% 30.04 0.0
07 02:15 NE 5 10.00 Overcast OVC014 55.6 52.9 91% 30.04 0.0
07 01:55 NE 6 10.00 Partly Cloudy SCT015 55.2 52.5 91% 30.04 0.0
07 01:35 N 3 10.00 Partly Cloudy FEW017 SCT260 55.2 52.3 90% 30.03 0.0
07 01:15 N 3 10.00 Mostly Cloudy FEW018 BKN260 55.4 52.5 90% 30.02 0.0
07 00:55 NE 5 10.00 Mostly Cloudy BKN018 BKN260 56.1 52.5 88% 30.01 0.0
07 00:35 NE 6 10.00 Partly Cloudy SCT260 56.7 52.5 86% 30.01 0.0
07 00:15 NE 3 10.00 Mostly Cloudy BKN260 57.2 52.7 85% 30.01 0.0
06 23:55 NE 5 10.00 A Few Clouds FEW260 57.7 52.7 83% 30.01 0.0
06 23:35 E 7 10.00 A Few Clouds FEW260 57.6 53.6 87% 30.01 0.0
06 23:15 E 3 10.00 A Few Clouds FEW280 58.1 54.1 87% 30.01 0.0
06 22:55 Calm 10.00 Fair CLR 58.1 54 86% 29.99 0.0
06 22:35 NE 6 10.00 Fair CLR 58.3 54.3 87% 29.98 0.0
06 22:15 NE 6 10.00 Fair CLR 58.5 55.6 90% 29.98 0.0
06 21:55 NE 5 10.00 Fair CLR 58.5 55.6 90% 29.99 0.0
06 21:35 NE 5 10.00 Fair CLR 59.7 56.1 88% 29.98 0.0
06 21:15 NE 3 10.00 A Few Clouds FEW290 60.6 56.1 85% 29.98 0.0
06 20:55 E 3 10.00 A Few Clouds FEW290 61.2 55.8 83% 29.97 0.0
06 20:35 E 7 10.00 Partly Cloudy SCT280 62.8 55.9 78% 29.96 0.0
06 20:15 E 5 10.00 Mostly Cloudy FEW250 BKN280 64.2 55.6 74% 29.94 0.0
06 19:55 E 5 10.00 Mostly Cloudy SCT250 BKN280 65.5 55.2 70% 29.94 0.0
06 19:35 NE 6 10.00 Overcast BKN260 OVC280 66.4 55.4 68% 29.93 0.0
06 19:15 NE 5 10.00 Overcast BKN260 OVC280 67.3 55.6 66% 29.93 0.0
06 18:55 NE 5 10.00 Overcast BKN250 OVC270 66.9 54.9 65% 29.93 0.0
06 18:35 Calm 10.00 Mostly Cloudy BKN240 BKN270 67.3 54.5 64% 29.92 0.0
06 18:15 N 7 10.00 Overcast OVC240 67.8 54 61% 29.92 0.0
06 17:55 NE 3 10.00 Overcast OVC240 67.6 55.4 65% 29.92 0.0
06 17:35 NE 5 10.00 Overcast OVC230 66.7 54.7 65% 29.92 0.0
06 17:15 NE 6 10.00 Overcast OVC230 65.8 54.5 67% 29.91 0.0
06 16:55 N 7 10.00 Overcast OVC230 65.8 54.5 67% 29.91 0.0
06 16:35 N 3 10.00 Overcast OVC220 64.2 54.1 70% 29.91 0.0
06 16:15 Vrbl 5 10.00 Mostly Cloudy FEW029 BKN220 64.8 54.3 69% 29.92 0.0
06 15:55 N 6 10.00 Overcast BKN026 OVC031 63.7 53.6 70% 29.93 0.0
06 15:35 N 8 10.00 Overcast OVC024 62.8 53.4 72% 29.93 0.0
06 15:15 N 12 10.00 Overcast OVC023 62.1 53.1 73% 29.94 0.0
06 14:55 N 9 10.00 Overcast OVC023 61.5 53.1 74% 29.94 0.0
06 14:35 N 8 10.00 Overcast OVC021 60.8 52.5 74% 29.95 0.0
06 14:15 N 9 10.00 Overcast OVC019 59.7 52 76% 29.96 0.0
06 13:55 N 8 10.00 Overcast OVC016 58.3 51.6 79% 29.97 0.0
06 13:35 N 8 10.00 Overcast OVC016 57.6 51.6 81% 29.97 0.0
06 13:15 N 10 10.00 Overcast OVC014 56.8 51.6 83% 29.98 0.0
06 12:55 N 12 10.00 Overcast OVC012 55.4 51.1 85% 29.97 0.0
06 12:35 N 13 10.00 Overcast OVC012 54.7 51.3 88% 29.97 0.0
06 12:20 N 10 10.00 Overcast OVC010 54 50.7 89% 29.98 0.0
06 11:55 N 12 10.00 Overcast OVC009 53.2 51.1 92% 29.97 0.0
06 11:35 N 9 10.00 Overcast OVC009 53.2 51.1 92% 29.97 0.0
06 11:15 N 13 10.00 Overcast OVC009 53.2 50.9 92% 29.97 0.0
06 10:55 N 13 10.00 Overcast OVC010 53.1 51.3 94% 29.95 0.0
06 10:35 N 10 10.00 Overcast OVC010 53.2 51.4 94% 29.96 0.0
06 10:15 N 9 10.00 Overcast OVC009 53.2 51.4 94% 29.94 0.0
06 09:55 NE 8 G 16 10.00 Overcast BKN009 OVC014 52.7 51.1 94% 29.93 0.0
06 09:35 NE 10 9.00 Overcast SCT009 OVC014 52.2 51.3 97% 29.9 0.0 0.04
06 09:15 Vrbl 6 4.00 Rain Fog/Mist OVC009 51.8 51.3 98% 29.93 0.0 0.03
06 08:55 Vrbl 5 5.00 Light Rain Fog/Mist BKN011 BKN017 OVC080 52.2 51.1 96% 29.98 0.0 0.01
06 08:35 N 10 7.00 Light Rain OVC011 52.5 50.7 94% 29.97 0.0
06 08:15 N 14 6.00 Light Rain Fog/Mist OVC010 52.5 50.4 92% 29.93 0.0
06 07:55 N 13 G 21 9.00 Overcast OVC010 53.1 49.5 88% 29.92 0.0
06 07:35 N 16 9.00 Overcast OVC011 54 49.6 85% 29.92 0.0
06 07:15 N 14 9.00 Overcast OVC012 54.1 49.8 85% 29.9 0.0
06 06:55 N 10 10.00 Overcast OVC014 54.5 49.8 84% 29.88 0.0
06 06:35 N 9 10.00 Overcast OVC013 54.9 50 84% 29.86 0.0
06 06:15 N 10 10.00 Overcast OVC015 55 50.4 84% 29.87 0.0
06 05:55 N 10 10.00 Overcast OVC016 55.6 50.9 84% 29.87 0.0
06 05:35 N 12 10.00 Overcast OVC017 55.9 51.1 84% 29.86 0.0
06 05:15 N 6 10.00 Overcast OVC017 56.5 51.8 84% 29.85 0.0
06 04:55 NE 8 10.00 Overcast OVC017 57 52.7 86% 29.83 0.0
06 04:35 N 10 10.00 Overcast OVC018 57.6 52.7 84% 29.84 0.0
06 04:15 N 7 10.00 Overcast OVC018 58.3 53.2 83% 29.83 0.0
06 03:55 N 8 10.00 Overcast OVC018 58.5 53.6 84% 29.82 0.0
06 03:35 N 10 10.00 Overcast OVC019 58.8 54 84% 29.82 0.0
06 03:15 N 6 10.00 Mostly Cloudy SCT020 BKN230 58.8 54.5 86% 29.82 0.0
06 02:55 N 7 10.00 Fair CLR 59.4 55.2 86% 29.82 0.0
06 02:35 N 9 10.00 Fair CLR 60.6 56.5 86% 29.81 0.0
06 02:15 N 9 10.00 Fair CLR 61.9 57 84% 29.81 0.0
06 01:55 NE 3 10.00 Fair CLR 62.4 56.8 82% 29.8 0.0
06 00:55 NE 7 10.00 Fair CLR 64.8 56.5 75% 29.8 0.0
06 00:35 NE 6 10.00 Fair CLR 65.5 56.1 72% 29.8 0.0
06 00:15 NE 6 10.00 Fair CLR 66.2 56.1 70% 29.79 0.0
05 23:55 NE 7 10.00 A Few Clouds FEW240 66.7 56.3 69% 29.79 0.0
05 23:35 NE 6 10.00 Mostly Cloudy SCT220 BKN250 67.8 56.7 68% 29.79 0.0
05 23:15 NE 12 3.00 Mostly Cloudy with Haze BKN210 BKN240 68.5 56.8 66% 29.79 0.0
05 22:55 NE 8 10.00 Fair CLR 69.6 57.2 65% 29.78 0.0
05 22:35 NE 6 10.00 Fair CLR 70.5 58.1 65% 29.77 0.0
05 22:15 NE 9 10.00 Fair CLR 71.6 59.2 65% 29.77 0.0
05 21:55 NE 7 10.00 Fair CLR 72.7 60.6 66% 29.76 0.0
05 21:35 NE 10 9.00 Fair CLR 74.1 61.3 64% 29.74 0.0
05 21:15 NE 10 10.00 Fair CLR 75.4 61.7 63% 77 29.71 0.0
05 20:55 NW 16 10.00 Fair CLR 77 61.9 60% 79 29.71 0.0
05 20:35 Vrbl 5 10.00 Fair CLR 77.7 63.5 62% 79 29.69 0.0
05 20:15 S 6 10.00 Fair CLR 80.1 64.2 59% 82 29.66 0.0
05 19:55 S 6 10.00 Fair CLR 81 64.4 57% 83 29.65 0.0
05 19:35 SE 6 10.00 Fair CLR 82.6 63.7 53% 84 29.65 0.0
05 19:15 S 6 10.00 Fair CLR 84.7 62.6 47% 86 29.66 0.0
05 18:55 S 6 10.00 Fair CLR 85.6 62.2 46% 86 29.66 0.0
05 18:35 S 8 10.00 A Few Clouds FEW190 88.9 59.5 37% 88 29.66 0.0
05 18:15 SW 7 10.00 Mostly Cloudy BKN190 89.4 59.9 37% 89 29.67 0.0
05 17:55 S 6 10.00 Mostly Cloudy BKN200 89.4 60.1 37% 89 29.66 0.0
05 17:35 SW 7 10.00 Overcast OVC190 90 57.9 34% 89 29.66 0.0
05 17:15 SW 9 10.00 Overcast BKN190 OVC210 90.5 58.3 34% 89 29.67 0.0
05 16:55 SW 7 10.00 Mostly Cloudy BKN210 89.8 59.7 36% 89 29.67 0.0
05 16:35 SW 7 10.00 A Few Clouds FEW220 91 59.7 35% 91 29.67 0.0
05 16:15 NW 6 10.00 A Few Clouds FEW220 90.1 60.1 37% 90 29.67 0.0
05 15:55 Vrbl 5 10.00 A Few Clouds FEW340 89.2 64.4 44% 91 29.68 0.0
05 15:35 Vrbl 5 10.00 A Few Clouds FEW330 88.5 64.6 45% 90 29.68 0.0
05 15:15 SW 8 10.00 A Few Clouds FEW370 88.3 65.3 46% 90 29.69 0.0
05 14:55 SW 12 10.00 A Few Clouds FEW320 88.3 65.8 47% 91 29.7 0.0
05 14:35 SW 9 10.00 A Few Clouds FEW340 87.8 65.8 48% 90 29.7 0.0
05 14:15 W 8 10.00 Partly Cloudy FEW290 SCT340 SCT360 87.1 66.2 50% 90 29.71 0.0
05 13:55 S 10 10.00 Partly Cloudy FEW280 SCT350 SCT370 86.5 67.6 53% 90 29.72 0.0
05 13:35 SW 7 G 17 10.00 Partly Cloudy FEW240 SCT370 85.8 66.9 53% 89 29.73 0.0
05 13:15 SW 12 10.00 Partly Cloudy FEW290 SCT370 85.5 68.7 57% 89 29.73 0.0
05 12:55 SW 10 10.00 A Few Clouds FEW290 84.4 69.4 61% 88 29.74 0.0
05 12:35 SW 10 10.00 A Few Clouds FEW280 82.9 69.3 63% 87 29.74 0.0
05 12:15 SW 10 10.00 Partly Cloudy FEW280 SCT370 81.5 69.1 66% 85 29.74 0.0
05 11:55 SW 13 10.00 Partly Cloudy FEW320 SCT380 80.8 69.1 68% 84 29.75 0.0
05 11:35 SW 10 10.00 A Few Clouds FEW290 79.7 68.7 69% 82 29.74 0.0
05 11:15 SW 13 G 18 10.00 Partly Cloudy SCT310 79.5 68.9 70% 82 29.74 0.0
05 10:55 S 10 10.00 A Few Clouds FEW300 77.2 68.9 76% 79 29.74 0.0
05 10:35 S 10 10.00 Fair CLR 76.1 68.9 78% 77 29.74 0.0
05 10:15 SW 12 10.00 Fair CLR 75 68.5 80% 76 29.74 0.0
05 09:55 SW 12 10.00 Fair CLR 74.1 67.8 81% 29.75 0.0
05 09:35 SW 9 9.00 A Few Clouds FEW017 73.2 67.8 83% 29.76 0.0
05 09:15 S 6 10.00 Fair CLR 72 68 87% 29.75 0.0
05 08:55 S 6 10.00 Fair CLR 70 66.9 90% 29.74 0.0
05 08:35 S 6 10.00 Fair CLR 68.5 66.4 93% 29.74 0.0
05 08:15 S 5 10.00 Fair CLR 67.3 66 96% 29.74 0.0
05 07:55 S 5 10.00 Fair CLR 65.5 65.1 99% 29.73 0.0
05 07:35 S 5 9.00 Fair CLR 64 64 100% 29.72 0.0
05 07:15 SE 3 8.00 Fair CLR 60.8 60.8 100% 29.72 0.0
05 06:55 S 5 9.00 Fair CLR 62.4 62.4 100% 29.71 0.0
05 06:35 Calm 9.00 Fair CLR 61.9 61.9 100% 29.7 0.0
05 06:15 Calm 10.00 Fair CLR 64 63.5 98% 29.7 0.0
05 05:55 SE 5 10.00 Fair CLR 64.2 63.7 98% 29.7 0.0
05 05:35 SE 5 10.00 Fair CLR 65.1 64 96% 29.7 0.0
05 05:15 S 5 10.00 Fair CLR 65.3 63.9 95% 29.7 0.0
05 04:55 S 5 10.00 Fair CLR 64.2 63.5 98% 29.7 0.0
05 04:35 S 6 10.00 Fair CLR 63.7 63.1 98% 29.7 0.0
05 04:15 SE 6 10.00 Fair CLR 63.1 63 99% 29.71 0.0
05 03:55 SE 3 10.00 Fair CLR 64 62.8 96% 29.71 0.0
05 03:35 SE 3 10.00 Fair CLR 65.1 63.9 96% 29.72 0.0
05 03:15 SE 3 10.00 Fair CLR 65.5 63.7 94% 29.72 0.0
05 02:55 SE 3 10.00 A Few Clouds FEW240 66.6 64 92% 29.72 0.0
05 02:35 SE 3 9.00 Fair CLR 66.7 64 91% 29.73 0.0
05 02:15 SE 3 10.00 Fair CLR 67.8 64.4 89% 29.73 0.0
05 01:55 S 6 10.00 Fair CLR 68.9 64.4 86% 29.74 0.0
05 01:35 S 7 10.00 Fair CLR 69.3 64.6 85% 29.74 0.0
05 01:15 S 7 10.00 A Few Clouds FEW250 70.2 64.8 83% 29.74 0.0
05 00:55 S 8 10.00 Fair CLR 70.7 64.8 82% 29.74 0.0
05 00:35 S 7 10.00 Fair CLR 70.7 64.6 81% 29.75 0.0
05 00:15 S 8 10.00 Fair CLR 70.7 64.6 81% 29.74 0.0
04 23:55 S 7 10.00 Fair CLR 71.8 64.6 78% 29.75 0.0
04 23:35 S 9 10.00 Fair CLR 72.1 64.6 77% 29.74 0.0
04 23:15 S 9 10.00 Fair CLR 72.7 64.4 75% 29.74 0.0
04 22:55 S 12 10.00 Fair CLR 73.4 64.4 74% 29.74 0.0
04 22:35 S 12 10.00 Fair CLR 73.8 64.4 73% 29.74 0.0
04 22:15 S 10 10.00 A Few Clouds FEW280 74.5 64.2 70% 29.73 0.0
04 21:35 S 12 10.00 Fair CLR 75.2 64.8 70% 77 29.72 0.0
04 21:15 S 10 10.00 Fair CLR 75.4 64.9 70% 77 29.72 0.0
04 20:55 S 10 10.00 Fair CLR 76.1 65.1 69% 78 29.72 0.0
04 20:35 S 10 10.00 Fair CLR 77.4 64.9 66% 79 29.71 0.0
04 20:15 S 12 10.00 Fair CLR 78.6 65.3 64% 81 29.7 0.0
04 19:55 S 10 10.00 Fair CLR 79.2 65.3 63% 81 29.7 0.0
04 19:35 S 10 10.00 Fair CLR 80.2 65.1 60% 82 29.71 0.0
04 19:15 S 13 10.00 Fair CLR 81.3 65.1 58% 83 29.71 0.0
04 18:55 S 12 10.00 Fair CLR 82.2 65.3 57% 84 29.72 0.0
04 18:35 S 14 10.00 Partly Cloudy SCT240 83.3 64.6 53% 85 29.72 0.0
04 18:15 S 14 10.00 Overcast BKN230 OVC250 83.8 64.6 52% 85 29.73 0.0
04 17:55 S 15 10.00 Partly Cloudy SCT220 82 64.2 55% 84 29.73 0.0
04 17:35 S 12 G 23 10.00 Fair CLR 83.8 65.1 53% 86 29.73 0.0
04 17:15 S 15 G 22 10.00 Fair CLR 84.7 65.1 52% 87 29.74 0.0
04 16:55 S 14 10.00 Fair CLR 84 64.9 53% 86 29.74 0.0
04 16:35 S 14 10.00 Fair CLR 83.7 64.8 53% 85 29.75 0.0
04 16:15 S 12 10.00 A Few Clouds FEW250 83.8 64.8 53% 86 29.76 0.0
04 15:55 S 14 10.00 A Few Clouds FEW260 82.9 64.6 54% 85 29.77 0.0
04 15:35 S 14 10.00 A Few Clouds FEW300 82.2 64.4 55% 84 29.78 0.0
04 15:15 S 18 10.00 Fair CLR 82.2 63.5 53% 84 29.79 0.0
04 14:55 SW 15 G 20 10.00 A Few Clouds FEW280 81.9 63.3 53% 83 29.81 0.0
04 14:35 S 14 10.00 Partly Cloudy FEW280 SCT370 81.1 62.6 53% 82 29.82 0.0
04 14:15 SW 16 G 22 10.00 A Few Clouds FEW280 81.7 62.6 52% 83 29.82 0.0
04 13:55 SW 16 G 24 10.00 A Few Clouds FEW360 81 63.5 55% 82 29.83 0.0
04 13:35 SW 14 G 23 10.00 A Few Clouds FEW350 80.6 63.1 55% 82 29.84 0.0
04 13:15 SW 14 G 20 10.00 A Few Clouds FEW350 80.1 63.5 57% 82 29.85 0.0
04 12:55 S 16 G 23 10.00 A Few Clouds FEW310 78.4 62.1 57% 80 29.86 0.0
04 12:35 SW 14 10.00 A Few Clouds FEW320 77.2 61.9 59% 79 29.87 0.0
04 12:15 SW 14 10.00 A Few Clouds FEW360 76.1 61.3 60% 78 29.87 0.0
04 11:55 S 14 G 28 10.00 A Few Clouds FEW330 75.2 61.2 62% 77 29.88 0.0
04 11:35 SW 16 G 23 10.00 Fair CLR 74.3 60.8 63% 29.88 0.0
04 11:15 SW 17 G 24 10.00 Fair CLR 73.8 60.4 63% 29.9 0.0
04 10:55 S 17 10.00 Fair CLR 72 60.4 67% 29.9 0.0
04 10:35 SW 15 10.00 Fair CLR 70 59.5 70% 29.9 0.0
Date Time (cdt) Wind (mph) Vis. (mi.) Weather Sky Cond. Air Dwpt Max. Min. Relative Humidity Wind Chill (°F) Heat Index (°F) altimeter (in) sea level (mb) 1 hr 3 hr 6 hr
6 hour
Temperature (ºF) Pressure Precipitation (in)